logo
Search for airport 
image banner adimage banner adimage banner ad
image banner ad

YHTN - Herberton

Located in Kalunga, Australia

ICAO - YHTN, IATA -

Data provided by Airmate  

General information

Coordinates: S17°25'46" E145°23'48"
Elevation is 2998 feet MSL.
Magnetic variation is 7° East
View others Airports in Queensland

Operational data

Special qualification required
Current time UTC:
Current local time:
Weather at : YBCS - Cairns / Cairns Intl ( 71 km )
METAR: YBCS 161930Z AUTO 14009KT 9999 // NCD 17/14 Q1014 RF00.0/000.0
TAF: TAF YBCS 161714Z 1618/1718 17008KT 9999 FEW050 FM170100 12012KT CAVOK BECMG 1707/1709 22006KT CAVOK
View NOTAMs / SUP AIP / TFR affecting this airport [VIEW]
Communications frequencies: [VIEW]

Runways:

RWY identifierQFULength (ft)Width (ft)SurfaceLDA (ft)
1631880G
3331880G
34347°266181DIRT

Airport contact information

Address: Kalunga Australia

Satellite view of YHTN